createdAt,value
2019-02-25T00:01:18.234Z,57.30
2019-02-25T00:03:47.870Z,57.20
2019-02-25T00:06:17.456Z,57.30
2019-02-25T00:08:47.110Z,57.10
2019-02-25T00:11:16.722Z,57.20
2019-02-25T00:13:46.325Z,57.20
2019-02-25T00:16:15.923Z,57.20
2019-02-25T00:18:45.585Z,57.20
2019-02-25T00:21:15.165Z,57.20
2019-02-25T00:23:46.812Z,57.20
2019-02-25T00:26:16.437Z,57.70
2019-02-25T00:28:46.034Z,57.20
2019-02-25T00:31:15.645Z,57.30
2019-02-25T00:33:45.249Z,57.10
2019-02-25T00:36:14.865Z,57.10
2019-02-25T00:38:44.423Z,57.10
2019-02-25T00:41:14.065Z,57.70
2019-02-25T00:43:43.613Z,57.10
2019-02-25T00:46:13.215Z,57.20
2019-02-25T00:48:42.858Z,57.10
2019-02-25T00:51:12.432Z,57.20
2019-02-25T00:53:42.025Z,57.10
2019-02-25T00:56:11.590Z,57.00
2019-02-25T00:58:41.176Z,57.10
2019-02-25T01:01:10.779Z,57.80
2019-02-25T01:03:40.393Z,57.10
2019-02-25T01:06:10.000Z,57.10
2019-02-25T01:08:39.588Z,57.10
2019-02-25T01:11:09.138Z,57.00
2019-02-25T01:13:38.722Z,57.10
2019-02-25T01:16:08.118Z,57.10
2019-02-25T01:18:37.742Z,57.10
2019-02-25T01:21:07.338Z,57.20
2019-02-25T01:23:36.971Z,57.10
2019-02-25T01:26:08.181Z,57.10
2019-02-25T01:28:39.082Z,57.20
2019-02-25T01:31:08.634Z,57.20
2019-02-25T01:33:38.303Z,57.20
2019-02-25T01:36:07.906Z,57.10
2019-02-25T01:38:37.442Z,57.20
2019-02-25T01:41:07.046Z,57.10
2019-02-25T01:43:36.677Z,57.10
2019-02-25T01:46:06.293Z,57.20
2019-02-25T01:48:35.894Z,57.20
2019-02-25T01:51:05.548Z,57.20
2019-02-25T01:53:35.165Z,57.10
2019-02-25T01:56:04.749Z,57.10
2019-02-25T01:58:34.433Z,57.00
2019-02-25T02:01:03.987Z,57.00
2019-02-25T02:03:33.597Z,57.00
2019-02-25T02:06:03.221Z,57.00
2019-02-25T02:08:32.807Z,57.20
2019-02-25T02:11:02.482Z,57.00
2019-02-25T02:13:33.557Z,57.10
2019-02-25T02:16:03.164Z,57.10
2019-02-25T02:18:34.392Z,57.20
2019-02-25T02:21:03.989Z,57.10
2019-02-25T02:23:33.656Z,57.10
2019-02-25T02:26:03.247Z,57.10
2019-02-25T02:28:32.791Z,57.10
2019-02-25T02:31:02.478Z,57.00
2019-02-25T02:33:33.353Z,57.10
2019-02-25T02:36:02.967Z,57.10
2019-02-25T02:38:32.612Z,57.10
2019-02-25T02:41:02.202Z,57.20
2019-02-25T02:43:31.797Z,57.10
2019-02-25T02:46:26.474Z,57.10
2019-02-25T02:49:00.324Z,57.20
2019-02-25T02:51:29.938Z,57.20
2019-02-25T02:53:59.616Z,57.00
2019-02-25T02:56:29.176Z,57.00
2019-02-25T02:58:58.810Z,57.00
2019-02-25T03:01:28.407Z,57.00
2019-02-25T03:03:57.986Z,57.10
2019-02-25T03:06:28.680Z,57.10
2019-02-25T03:08:58.226Z,57.10
2019-02-25T03:11:27.862Z,57.10
2019-02-25T03:13:57.470Z,57.00
2019-02-25T03:16:27.054Z,57.10
2019-02-25T03:18:56.638Z,57.10
2019-02-25T03:21:26.245Z,57.10
2019-02-25T03:23:55.841Z,57.10
2019-02-25T03:26:25.387Z,57.10
2019-02-25T03:28:55.026Z,57.00
2019-02-25T03:31:24.630Z,57.00
2019-02-25T03:33:54.238Z,57.10
2019-02-25T03:36:23.842Z,57.00
2019-02-25T03:38:53.491Z,56.90
2019-02-25T03:41:23.069Z,57.00
2019-02-25T03:43:52.677Z,56.50
2019-02-25T03:46:22.265Z,57.00
2019-02-25T03:48:51.881Z,57.00
2019-02-25T03:51:21.433Z,57.00
2019-02-25T03:53:51.053Z,56.90
2019-02-25T03:56:20.615Z,56.90
2019-02-25T03:58:50.238Z,57.00
2019-02-25T04:01:19.831Z,56.90
2019-02-25T04:03:49.410Z,56.90
2019-02-25T04:06:19.025Z,56.90
2019-02-25T04:08:48.598Z,56.90
2019-02-25T04:11:18.234Z,56.90
2019-02-25T04:13:47.828Z,56.90
2019-02-25T04:16:17.480Z,56.90
2019-02-25T04:18:47.116Z,56.90
2019-02-25T04:21:16.711Z,57.00
2019-02-25T04:23:46.314Z,57.00
2019-02-25T04:26:16.322Z,56.90
2019-02-25T04:28:45.954Z,57.00
2019-02-25T04:31:15.622Z,56.90
2019-02-25T04:33:45.163Z,56.90
2019-02-25T04:36:14.767Z,56.90
2019-02-25T04:38:46.013Z,56.90
2019-02-25T04:41:15.559Z,57.00
2019-02-25T04:43:45.226Z,57.10
2019-02-25T04:46:14.815Z,57.00
2019-02-25T04:48:44.393Z,56.90
2019-02-25T04:51:13.986Z,56.90
2019-02-25T04:53:43.587Z,56.90
2019-02-25T04:56:13.173Z,56.90
2019-02-25T04:58:42.776Z,56.90
2019-02-25T05:01:12.439Z,57.00
2019-02-25T05:03:42.038Z,56.90
2019-02-25T05:06:11.681Z,56.90
2019-02-25T05:08:41.221Z,56.90
2019-02-25T05:11:11.217Z,56.90
2019-02-25T05:13:40.786Z,56.90
2019-02-25T05:16:10.367Z,56.90
2019-02-25T05:18:39.987Z,57.00
2019-02-25T05:21:09.639Z,56.90
2019-02-25T05:23:39.186Z,57.00
2019-02-25T05:26:08.794Z,57.00
2019-02-25T05:28:40.035Z,57.00
2019-02-25T05:31:09.661Z,57.00
2019-02-25T05:33:39.217Z,57.00
2019-02-25T05:36:08.861Z,57.00
2019-02-25T05:38:38.458Z,56.90
2019-02-25T05:41:08.065Z,56.90
2019-02-25T05:43:37.690Z,56.90
2019-02-25T05:46:07.268Z,56.90
2019-02-25T05:48:36.849Z,56.90
2019-02-25T05:51:06.526Z,57.00
2019-02-25T05:53:36.114Z,57.00
2019-02-25T05:56:07.329Z,56.90
2019-02-25T05:58:36.925Z,57.00
2019-02-25T06:01:07.966Z,56.90
2019-02-25T06:03:37.586Z,57.00
2019-02-25T06:06:07.180Z,56.90
2019-02-25T06:08:36.823Z,56.90
2019-02-25T06:11:06.418Z,56.90
2019-02-25T06:13:36.335Z,57.00
2019-02-25T06:16:05.912Z,57.00
2019-02-25T06:18:35.550Z,56.90
2019-02-25T06:21:05.170Z,56.90
2019-02-25T06:23:34.745Z,56.90
2019-02-25T06:26:04.404Z,56.90
2019-02-25T06:28:33.981Z,56.90
2019-02-25T06:31:03.602Z,56.90
2019-02-25T06:33:33.185Z,56.90
2019-02-25T06:36:02.773Z,56.90
2019-02-25T06:38:32.995Z,56.90
2019-02-25T06:41:02.546Z,56.90
2019-02-25T06:43:32.186Z,56.90
2019-02-25T06:46:01.783Z,56.90
2019-02-25T06:48:31.369Z,56.90
2019-02-25T06:51:00.965Z,56.90
2019-02-25T06:53:32.168Z,56.80
2019-02-25T06:56:01.793Z,56.80
2019-02-25T06:58:31.390Z,56.80
2019-02-25T07:01:01.025Z,56.80
2019-02-25T07:03:30.673Z,56.80
2019-02-25T07:06:09.690Z,56.80
2019-02-25T07:08:48.863Z,56.80
2019-02-25T07:11:23.982Z,56.60
2019-02-25T07:14:11.348Z,56.70
2019-02-25T07:17:07.126Z,56.60
2019-02-25T07:19:49.957Z,56.60
2019-02-25T07:22:30.477Z,56.50
2019-02-25T07:25:17.558Z,56.60
2019-02-25T07:28:18.412Z,56.50
2019-02-25T07:30:58.746Z,56.50
2019-02-25T07:33:47.403Z,56.60
2019-02-25T07:36:44.667Z,56.60
2019-02-25T07:39:32.229Z,56.60
2019-02-25T07:42:36.214Z,56.50
2019-02-25T07:45:34.001Z,56.60
2019-02-25T07:48:23.633Z,56.50
2019-02-25T07:51:13.130Z,56.50
2019-02-25T07:54:06.726Z,56.50
2019-02-25T07:57:04.347Z,56.40
2019-02-25T07:59:59.354Z,56.50
2019-02-25T08:02:51.066Z,56.50
2019-02-25T08:05:58.077Z,56.50
2019-02-25T08:08:45.274Z,56.60
2019-02-25T08:11:27.760Z,56.60
2019-02-25T08:14:11.456Z,56.50
2019-02-25T08:17:04.597Z,56.50
2019-02-25T08:19:56.466Z,56.60
2019-02-25T08:22:43.275Z,56.60
2019-02-25T08:25:47.311Z,56.60
2019-02-25T08:28:44.954Z,56.50
2019-02-25T08:31:32.525Z,56.50
2019-02-25T08:34:30.580Z,56.60
2019-02-25T08:37:56.989Z,56.50
2019-02-25T08:41:24.541Z,56.50
2019-02-25T08:44:19.001Z,56.60
2019-02-25T08:47:00.696Z,56.50
2019-02-25T08:49:40.970Z,56.60
2019-02-25T08:52:10.594Z,56.60
2019-02-25T08:54:40.234Z,56.60
2019-02-25T08:57:09.870Z,56.60
2019-02-25T08:59:40.062Z,56.50
2019-02-25T09:02:09.716Z,56.50
2019-02-25T09:04:39.384Z,56.60
2019-02-25T09:07:08.978Z,56.50
2019-02-25T09:09:38.571Z,56.50
2019-02-25T09:12:10.822Z,56.50
2019-02-25T09:14:40.421Z,56.50
2019-02-25T09:17:10.006Z,56.50
2019-02-25T09:19:39.617Z,57.00
2019-02-25T09:22:09.238Z,56.40
2019-02-25T09:24:40.797Z,56.70
2019-02-25T09:27:10.151Z,56.40
2019-02-25T09:29:39.719Z,56.40
2019-02-25T09:32:09.359Z,56.40
2019-02-25T09:34:40.590Z,56.40
2019-02-25T09:37:10.211Z,56.40
2019-02-25T09:39:39.831Z,56.40
2019-02-25T09:42:11.044Z,56.40
2019-02-25T09:44:40.704Z,56.40
2019-02-25T09:47:10.279Z,56.40
2019-02-25T09:49:39.890Z,56.30
2019-02-25T09:52:09.454Z,56.30
2019-02-25T09:54:38.990Z,56.30
2019-02-25T09:57:08.583Z,56.30
2019-02-25T09:59:38.195Z,56.30
2019-02-25T10:02:07.789Z,56.20
2019-02-25T10:04:37.659Z,56.30
2019-02-25T10:07:07.310Z,56.20
2019-02-25T10:09:36.861Z,55.40
2019-02-25T10:12:06.503Z,56.10
2019-02-25T10:14:36.101Z,56.10
2019-02-25T10:17:05.709Z,56.20
2019-02-25T10:19:35.376Z,56.20
2019-02-25T10:22:04.934Z,56.20
2019-02-25T10:24:34.532Z,56.20
2019-02-25T10:27:04.139Z,56.30
2019-02-25T10:29:35.345Z,56.30
2019-02-25T10:32:06.530Z,56.10
2019-02-25T10:34:36.313Z,56.10
2019-02-25T10:37:05.878Z,56.10
2019-02-25T10:39:35.462Z,56.20
2019-02-25T10:42:05.037Z,56.10
2019-02-25T10:44:36.210Z,56.10
2019-02-25T10:47:05.975Z,56.10
2019-02-25T10:49:35.569Z,56.00
2019-02-25T10:52:07.080Z,56.10
2019-02-25T10:54:36.444Z,56.00
2019-02-25T10:57:08.965Z,56.00
2019-02-25T10:59:39.550Z,56.00
2019-02-25T11:02:11.609Z,56.10
2019-02-25T11:04:41.229Z,56.10
2019-02-25T11:07:10.814Z,56.20
2019-02-25T11:09:58.370Z,56.00
2019-02-25T11:12:29.619Z,56.60
2019-02-25T11:14:59.264Z,56.00
2019-02-25T11:17:28.851Z,56.00
2019-02-25T11:19:59.201Z,55.90
2019-02-25T11:22:29.826Z,55.80
2019-02-25T11:25:01.082Z,55.90
2019-02-25T11:27:31.350Z,55.80
2019-02-25T11:30:02.182Z,55.80
2019-02-25T11:32:33.412Z,55.70
2019-02-25T11:35:04.072Z,55.80
2019-02-25T11:37:34.350Z,55.80
2019-02-25T11:40:04.787Z,55.90
2019-02-25T11:42:35.057Z,55.70
2019-02-25T11:45:05.492Z,55.80
2019-02-25T11:47:35.096Z,55.80
2019-02-25T11:50:06.140Z,55.80
2019-02-25T11:52:35.708Z,55.80
2019-02-25T11:55:06.353Z,55.80
2019-02-25T11:57:35.963Z,55.80
2019-02-25T12:00:14.519Z,55.90
2019-02-25T12:02:45.044Z,55.90
2019-02-25T12:05:16.188Z,55.90
2019-02-25T12:07:45.796Z,55.90
2019-02-25T12:10:17.006Z,55.90
2019-02-25T12:12:46.669Z,55.80
2019-02-25T12:15:16.260Z,55.80
2019-02-25T12:17:45.899Z,56.00
2019-02-25T12:20:17.092Z,56.00
2019-02-25T12:22:46.733Z,55.90
2019-02-25T12:25:17.338Z,56.00
2019-02-25T12:27:46.938Z,55.90
2019-02-25T12:30:18.056Z,55.90
2019-02-25T12:32:47.626Z,56.10
2019-02-25T12:35:17.171Z,56.00
2019-02-25T12:37:46.864Z,56.00
2019-02-25T12:40:16.677Z,56.00
2019-02-25T12:42:46.261Z,55.60
2019-02-25T12:45:15.874Z,55.90
2019-02-25T12:47:45.474Z,55.80
2019-02-25T12:50:15.133Z,55.70
2019-02-25T12:52:44.815Z,54.80
2019-02-25T12:55:14.484Z,55.70
2019-02-25T12:57:44.096Z,55.80
2019-02-25T13:00:14.929Z,55.50
2019-02-25T13:02:44.498Z,55.60
2019-02-25T13:05:15.121Z,55.70
2019-02-25T13:07:44.698Z,55.70
2019-02-25T13:10:14.402Z,55.70
2019-02-25T13:12:43.999Z,55.50
2019-02-25T13:15:18.778Z,55.40
2019-02-25T13:17:48.443Z,55.50
2019-02-25T13:20:18.049Z,55.50
2019-02-25T13:22:47.644Z,55.40
2019-02-25T13:25:17.261Z,54.70
2019-02-25T13:27:46.833Z,55.40
2019-02-25T13:30:17.472Z,55.40
2019-02-25T13:32:47.237Z,55.50
2019-02-25T13:35:16.890Z,55.50
2019-02-25T13:37:46.505Z,55.50
2019-02-25T13:40:16.130Z,55.50
2019-02-25T13:42:45.827Z,55.40
2019-02-25T13:45:15.625Z,55.50
2019-02-25T13:47:45.391Z,55.60
2019-02-25T13:50:15.059Z,55.50
2019-02-25T13:52:48.208Z,55.60
2019-02-25T13:55:16.147Z,55.60
2019-02-25T13:57:45.837Z,55.70
2019-02-25T14:00:18.094Z,55.70
2019-02-25T14:02:49.313Z,55.70
2019-02-25T14:05:18.944Z,55.70
2019-02-25T14:07:48.626Z,55.80
2019-02-25T14:10:18.312Z,55.80
2019-02-25T14:12:47.917Z,55.90
2019-02-25T14:15:18.705Z,55.80
2019-02-25T14:17:48.304Z,56.00
2019-02-25T14:20:18.722Z,55.70
2019-02-25T14:22:48.402Z,55.70
2019-02-25T14:25:20.050Z,55.90
2019-02-25T14:27:49.798Z,55.70
2019-02-25T14:31:36.229Z,56.00
2019-02-25T14:34:11.696Z,56.10
2019-02-25T14:36:42.064Z,55.70
2019-02-25T14:39:27.799Z,55.80
2019-02-25T14:41:54.924Z,56.40
2019-02-25T14:44:30.101Z,57.60
2019-02-25T14:46:58.683Z,58.20
2019-02-25T14:49:32.222Z,56.40
2019-02-25T14:52:02.246Z,58.80
2019-02-25T14:54:34.246Z,56.90
2019-02-25T14:57:04.936Z,55.40
2019-02-25T14:59:39.936Z,56.90
2019-02-25T15:02:11.144Z,55.80
2019-02-25T15:04:43.909Z,56.40
2019-02-25T15:07:15.341Z,55.10
2019-02-25T15:09:46.618Z,54.90
2019-02-25T15:12:17.170Z,53.80
2019-02-25T15:14:47.447Z,56.00
2019-02-25T15:17:17.833Z,57.10
2019-02-25T15:19:48.159Z,53.90
2019-02-25T15:22:18.632Z,55.80
2019-02-25T15:24:50.454Z,56.80
2019-02-25T15:27:21.291Z,55.50
2019-02-25T15:29:51.040Z,54.30
2019-02-25T15:32:21.602Z,54.00
2019-02-25T15:34:52.826Z,53.90
2019-02-25T15:37:24.358Z,54.30
2019-02-25T15:39:56.449Z,54.30
2019-02-25T15:42:29.753Z,53.70
2019-02-25T15:45:00.460Z,56.50
2019-02-25T15:47:31.057Z,53.60
2019-02-25T15:50:03.832Z,55.60
2019-02-25T15:52:39.925Z,54.10
2019-02-25T15:55:13.075Z,55.00
2019-02-25T15:57:41.182Z,54.40
2019-02-25T16:00:14.881Z,55.10
2019-02-25T16:02:45.794Z,56.80
2019-02-25T16:05:15.894Z,54.40
2019-02-25T16:07:46.456Z,53.90
2019-02-25T16:10:16.928Z,56.20
2019-02-25T16:12:48.287Z,57.00
2019-02-25T16:15:18.513Z,54.00
2019-02-25T16:17:49.601Z,53.70
2019-02-25T16:20:20.885Z,54.30
2019-02-25T16:22:51.934Z,54.30
2019-02-25T16:25:24.807Z,53.60
2019-02-25T16:27:56.202Z,53.70
2019-02-25T16:30:30.491Z,53.90
2019-02-25T16:33:02.109Z,55.20
2019-02-25T16:35:32.410Z,55.20
2019-02-25T16:38:04.636Z,55.80
2019-02-25T16:40:36.110Z,54.20
2019-02-25T16:43:07.783Z,54.50
2019-02-25T16:45:47.073Z,53.40
2019-02-25T16:48:34.624Z,54.20
2019-02-25T16:51:05.511Z,54.60
2019-02-25T16:53:38.679Z,54.90
2019-02-25T16:56:14.190Z,53.20
2019-02-25T16:58:44.047Z,56.00
2019-02-25T17:01:13.906Z,55.40
2019-02-25T17:03:44.334Z,55.10
2019-02-25T17:06:14.930Z,54.60
2019-02-25T17:08:44.583Z,54.30
2019-02-25T17:11:15.642Z,54.60
2019-02-25T17:13:46.514Z,54.80
2019-02-25T17:16:18.449Z,55.00
2019-02-25T17:18:47.521Z,55.20
2019-02-25T17:21:17.114Z,55.30
2019-02-25T17:23:46.873Z,55.40
2019-02-25T17:26:17.420Z,55.40
2019-02-25T17:28:49.551Z,55.60
2019-02-25T17:31:19.199Z,55.70
2019-02-25T17:33:49.622Z,55.90
2019-02-25T17:36:20.147Z,56.00
2019-02-25T17:38:52.001Z,56.10
2019-02-25T17:41:23.369Z,56.20
2019-02-25T17:43:54.896Z,56.30
2019-02-25T17:46:26.376Z,56.40
2019-02-25T17:48:55.690Z,56.50
2019-02-25T17:51:25.626Z,56.50
2019-02-25T17:53:56.587Z,56.50
2019-02-25T17:56:26.972Z,56.60
2019-02-25T17:58:59.344Z,56.70
2019-02-25T18:01:28.907Z,56.80
2019-02-25T18:03:59.951Z,56.80
2019-02-25T18:06:31.940Z,56.90
2019-02-25T18:09:02.120Z,56.90
2019-02-25T18:11:33.347Z,57.00
2019-02-25T18:14:03.067Z,57.10
2019-02-25T18:16:33.275Z,57.10
2019-02-25T18:19:04.018Z,57.10
2019-02-25T18:21:34.031Z,57.70
2019-02-25T18:24:03.792Z,57.20
2019-02-25T18:26:35.821Z,57.30
2019-02-25T18:29:05.607Z,57.40
2019-02-25T18:31:36.794Z,57.30
2019-02-25T18:34:09.595Z,57.40
2019-02-25T18:36:40.086Z,57.50
2019-02-25T18:39:13.031Z,57.50
2019-02-25T18:41:42.698Z,57.60
2019-02-25T18:44:13.549Z,57.50
2019-02-25T18:46:44.038Z,57.50
2019-02-25T18:49:14.842Z,57.60
2019-02-25T18:51:44.474Z,57.50
2019-02-25T18:54:14.552Z,57.70
2019-02-25T18:56:44.838Z,57.70
2019-02-25T18:59:16.216Z,57.60
2019-02-25T19:01:47.454Z,57.70
2019-02-25T19:04:19.278Z,57.60
2019-02-25T19:06:48.592Z,57.70
2019-02-25T19:09:23.200Z,57.70
2019-02-25T19:11:55.588Z,57.70
2019-02-25T19:14:26.552Z,57.70
2019-02-25T19:16:57.740Z,57.80
2019-02-25T19:19:27.805Z,57.80
2019-02-25T19:21:57.434Z,57.90
2019-02-25T19:24:27.045Z,57.80
2019-02-25T19:26:56.691Z,57.90
2019-02-25T19:29:28.081Z,57.90
2019-02-25T19:32:00.610Z,57.90
2019-02-25T19:34:29.034Z,57.90
2019-02-25T19:37:02.177Z,57.90
2019-02-25T19:39:30.178Z,57.90
2019-02-25T19:42:00.653Z,58.20
2019-02-25T19:44:31.904Z,58.20
2019-02-25T19:47:01.710Z,58.30
2019-02-25T19:49:31.474Z,58.00
2019-02-25T19:52:01.117Z,58.30
2019-02-25T19:54:34.101Z,58.10
2019-02-25T19:57:02.177Z,58.30
2019-02-25T19:59:31.957Z,58.10
2019-02-25T20:02:01.618Z,58.20
2019-02-25T20:04:33.482Z,58.50
2019-02-25T20:07:02.992Z,58.00
2019-02-25T20:09:33.180Z,58.40
2019-02-25T20:12:03.338Z,58.20
2019-02-25T20:14:34.726Z,58.40
2019-02-25T20:17:04.434Z,58.30
2019-02-25T20:19:34.244Z,58.20
2019-02-25T20:22:04.332Z,58.40
2019-02-25T20:24:34.144Z,58.40
2019-02-25T20:27:05.181Z,58.50
2019-02-25T20:29:36.107Z,58.20
2019-02-25T20:32:06.651Z,58.30
2019-02-25T20:34:36.248Z,58.10
2019-02-25T20:37:05.842Z,58.30
2019-02-25T20:39:35.930Z,58.10
2019-02-25T20:42:06.776Z,58.10
2019-02-25T20:44:36.362Z,58.10
2019-02-25T20:47:07.624Z,58.10
2019-02-25T20:49:37.200Z,58.10
2019-02-25T20:52:06.835Z,58.20
2019-02-25T20:54:38.827Z,58.30
2019-02-25T20:57:08.469Z,58.20
2019-02-25T20:59:38.970Z,58.20
2019-02-25T21:02:13.774Z,58.20
2019-02-25T21:04:43.322Z,58.10
2019-02-25T21:07:13.263Z,58.20
2019-02-25T21:09:43.497Z,58.10
2019-02-25T21:12:15.155Z,58.20
2019-02-25T21:14:44.978Z,58.10
2019-02-25T21:17:15.193Z,58.10
2019-02-25T21:19:44.771Z,58.20
2019-02-25T21:22:14.345Z,58.10
2019-02-25T21:24:43.920Z,58.10
2019-02-25T21:27:13.533Z,58.20
2019-02-25T21:29:43.116Z,58.10
2019-02-25T21:32:15.093Z,58.20
2019-02-25T21:34:46.526Z,58.10
2019-02-25T21:37:15.318Z,58.00
2019-02-25T21:39:44.939Z,58.10
2019-02-25T21:42:15.426Z,58.00
2019-02-25T21:44:46.397Z,58.10
2019-02-25T21:47:20.207Z,58.10
2019-02-25T21:49:48.423Z,58.10
2019-02-25T21:52:17.999Z,58.10
2019-02-25T21:54:48.620Z,58.00
2019-02-25T21:57:18.295Z,58.10
2019-02-25T21:59:49.512Z,58.10
2019-02-25T22:02:19.125Z,58.00
2019-02-25T22:04:50.126Z,57.90
2019-02-25T22:07:24.333Z,57.90
2019-02-25T22:09:52.324Z,57.90
2019-02-25T22:12:21.856Z,57.90
2019-02-25T22:14:52.204Z,57.90
2019-02-25T22:17:24.664Z,58.00
2019-02-25T22:19:55.308Z,57.90
2019-02-25T22:22:28.305Z,57.90
2019-02-25T22:24:56.360Z,57.90
2019-02-25T22:27:25.924Z,57.90
2019-02-25T22:29:55.548Z,57.90
2019-02-25T22:32:25.142Z,57.70
2019-02-25T22:34:56.082Z,57.90
2019-02-25T22:37:26.903Z,57.80
2019-02-25T22:39:57.278Z,57.70
2019-02-25T22:42:27.426Z,58.30
2019-02-25T22:44:58.229Z,57.70
2019-02-25T22:47:27.823Z,57.80
2019-02-25T22:49:57.434Z,57.70
2019-02-25T22:52:28.809Z,57.70
2019-02-25T22:54:58.300Z,57.70
2019-02-25T22:57:29.509Z,57.70
2019-02-25T22:59:59.181Z,57.70
2019-02-25T23:02:28.724Z,57.70
2019-02-25T23:04:58.341Z,57.70
2019-02-25T23:07:29.546Z,57.70
2019-02-25T23:09:59.152Z,57.70
2019-02-25T23:12:29.408Z,57.70
2019-02-25T23:15:01.035Z,57.60
2019-02-25T23:17:35.105Z,57.60
2019-02-25T23:20:05.747Z,57.60
2019-02-25T23:22:36.637Z,57.70
2019-02-25T23:25:07.994Z,58.30
2019-02-25T23:27:38.984Z,57.70
2019-02-25T23:30:09.160Z,57.60
2019-02-25T23:32:39.457Z,57.60
2019-02-25T23:35:13.620Z,57.60
2019-02-25T23:37:45.137Z,57.50
2019-02-25T23:40:14.414Z,57.50
2019-02-25T23:42:46.588Z,57.50
2019-02-25T23:45:18.364Z,58.10
2019-02-25T23:47:47.651Z,57.50
2019-02-25T23:50:18.237Z,57.50
2019-02-25T23:52:47.810Z,57.50
2019-02-25T23:55:19.683Z,57.50
2019-02-25T23:57:48.731Z,57.50
